createdAt,value
2023-11-24T05:34:47.968Z,4.53
2023-11-24T05:39:50.664Z,4.64
2023-11-24T05:44:53.338Z,4.71
2023-11-24T05:49:55.917Z,4.76
2023-11-24T05:54:59.612Z,4.74
2023-11-24T06:00:02.929Z,4.75
2023-11-24T06:05:25.510Z,4.76
2023-11-24T06:10:28.236Z,4.71
2023-11-24T06:15:30.809Z,4.69
2023-11-24T06:20:33.508Z,4.57
2023-11-24T06:25:36.081Z,4.64
2023-11-24T06:30:40.107Z,5.09
2023-11-24T06:35:43.935Z,4.84
2023-11-24T06:40:46.840Z,4.71
2023-11-24T06:45:49.499Z,4.67
2023-11-24T06:50:52.204Z,4.61
2023-11-24T06:55:54.825Z,4.62
2023-11-24T07:00:57.636Z,4.67
2023-11-24T07:06:01.579Z,4.70
2023-11-24T07:11:05.680Z,4.74
2023-11-24T07:16:08.839Z,4.83
2023-11-24T07:21:11.554Z,4.89
2023-11-24T07:26:23.254Z,4.93
2023-11-24T07:31:26.603Z,4.90
2023-11-24T07:36:29.259Z,4.94
2023-11-24T07:41:31.884Z,4.96
2023-11-24T07:46:34.609Z,4.93
2023-11-24T07:51:37.260Z,4.97
2023-11-24T07:56:40.046Z,4.98
2023-11-24T08:01:42.800Z,4.92
2023-11-24T08:06:46.686Z,5.26
2023-11-24T08:11:49.679Z,5.36
2023-11-24T08:16:52.623Z,5.26
2023-11-24T08:21:55.297Z,5.20
2023-11-24T08:26:58.392Z,5.17
2023-11-24T08:32:00.990Z,5.25
2023-11-24T08:37:04.012Z,5.19
2023-11-24T08:42:07.419Z,5.28
2023-11-24T08:53:37.335Z,5.15
2023-11-24T08:58:40.119Z,5.07
2023-11-24T09:03:42.875Z,5.19
2023-11-24T09:08:46.428Z,5.30
2023-11-24T09:13:57.753Z,5.45
2023-11-24T09:19:01.093Z,5.42
2023-11-24T09:24:04.219Z,5.57
2023-11-24T09:29:06.967Z,5.78
2023-11-24T09:34:09.664Z,5.81
2023-11-24T09:39:18.337Z,5.70
2023-11-24T09:44:21.263Z,5.63
2023-11-24T09:49:25.816Z,5.58
2023-11-24T09:54:28.543Z,5.53
2023-11-24T09:59:31.104Z,5.44
2023-11-24T10:04:33.822Z,5.47
2023-11-24T10:09:36.537Z,5.86
2023-11-24T10:14:44.476Z,6.01
2023-11-24T10:19:47.074Z,6.50
2023-11-24T10:24:49.695Z,6.28
2023-11-24T10:29:53.013Z,6.18
2023-11-24T10:34:55.678Z,6.45
2023-11-24T10:40:01.814Z,6.47
2023-11-24T10:45:07.425Z,6.51
2023-11-24T10:50:14.007Z,6.76
2023-11-24T10:55:16.960Z,6.73
2023-11-24T11:00:21.991Z,6.63
2023-11-24T11:05:35.676Z,6.41
2023-11-24T11:10:47.135Z,6.48
2023-11-24T11:15:52.291Z,6.70
2023-11-24T11:20:55.530Z,6.62
2023-11-24T11:25:59.603Z,6.73
2023-11-24T11:31:25.115Z,6.94
2023-11-24T11:36:29.588Z,6.79
2023-11-24T11:41:46.313Z,6.98
2023-11-24T11:47:12.006Z,7.46
2023-11-24T11:52:15.071Z,7.79
2023-11-24T11:57:18.129Z,7.57
2023-11-24T12:02:24.389Z,7.02
2023-11-24T12:07:27.737Z,7.13
2023-11-24T12:12:30.494Z,7.02
2023-11-24T12:17:33.276Z,6.64
2023-11-24T12:22:35.975Z,6.42
2023-11-24T12:27:38.648Z,6.23
2023-11-24T12:32:42.477Z,6.21
2023-11-24T12:37:47.626Z,6.38
2023-11-24T12:42:50.472Z,6.30
2023-11-24T12:47:53.231Z,6.40
2023-11-24T12:52:58.453Z,6.58
2023-11-24T12:58:00.993Z,6.37
2023-11-24T13:03:03.752Z,6.17
2023-11-24T13:08:06.905Z,6.02
2023-11-24T13:13:09.599Z,5.95
2023-11-24T13:18:12.259Z,5.78
2023-11-24T13:23:14.896Z,5.68
2023-11-24T13:28:17.478Z,5.61
2023-11-24T13:33:20.364Z,5.55
2023-11-24T13:38:23.071Z,5.54
2023-11-24T13:43:25.710Z,5.56
2023-11-24T13:48:30.321Z,5.62
2023-11-24T13:53:32.936Z,5.42
2023-11-24T13:58:35.546Z,5.19
2023-11-24T14:03:38.285Z,5.15
2023-11-24T14:08:41.020Z,5.05
2023-11-24T14:13:44.095Z,5.00
2023-11-24T14:18:46.731Z,4.95
2023-11-24T14:23:49.334Z,5.03
2023-11-24T14:28:51.896Z,4.97
2023-11-24T14:33:55.441Z,4.82
2023-11-24T14:38:58.589Z,4.63
2023-11-24T14:44:01.888Z,4.38
2023-11-24T14:49:05.301Z,4.20
2023-11-24T14:54:07.982Z,4.13
2023-11-24T14:59:10.717Z,4.13
2023-11-24T15:04:20.134Z,4.13
2023-11-24T15:09:26.428Z,4.06
2023-11-24T15:14:37.645Z,3.91
2023-11-24T15:19:40.589Z,3.82
2023-11-24T15:24:43.733Z,3.85
2023-11-24T15:29:46.546Z,3.90
2023-11-24T15:34:49.207Z,3.96
2023-11-24T15:39:58.328Z,4.03
2023-11-24T15:45:01.876Z,4.11
2023-11-24T15:50:09.922Z,4.10
2023-11-24T15:55:13.303Z,4.08
2023-11-24T16:00:30.208Z,4.00
2023-11-24T16:05:34.146Z,3.90
2023-11-24T16:10:44.555Z,3.82
2023-11-24T16:15:49.192Z,3.82
2023-11-24T16:20:51.825Z,3.89
2023-11-24T16:25:54.416Z,3.92
2023-11-24T16:30:57.410Z,3.98
2023-11-24T16:36:03.633Z,3.98
2023-11-24T16:41:06.309Z,3.97
2023-11-24T16:46:09.037Z,3.99
2023-11-24T16:51:11.855Z,3.99
2023-11-24T16:56:14.610Z,4.01
2023-11-24T17:01:17.292Z,3.98
2023-11-24T17:06:19.925Z,3.97
2023-11-24T17:11:22.511Z,3.99
2023-11-24T17:16:25.531Z,3.97
2023-11-24T17:21:28.354Z,3.97
2023-11-24T17:26:32.341Z,3.96
2023-11-24T17:31:34.948Z,3.96
2023-11-24T17:36:37.657Z,3.93
2023-11-24T17:41:41.118Z,3.92
2023-11-24T17:46:43.812Z,3.87
2023-11-24T17:51:46.745Z,3.82
2023-11-24T17:56:50.737Z,3.70
2023-11-24T18:01:53.433Z,3.55
2023-11-24T18:06:56.276Z,3.46
2023-11-24T18:11:58.888Z,3.44
2023-11-24T18:17:01.477Z,3.44
2023-11-24T18:22:04.516Z,3.45
2023-11-24T18:27:07.297Z,3.50
2023-11-24T18:32:10.836Z,3.51
2023-11-24T18:37:13.536Z,3.26
2023-11-24T18:42:16.196Z,2.76
2023-11-24T18:47:20.263Z,2.43
2023-11-24T18:52:24.087Z,2.12
2023-11-24T18:57:26.784Z,1.96
2023-11-24T19:02:29.487Z,1.92
2023-11-24T19:07:32.340Z,1.90
2023-11-24T19:12:35.002Z,1.87
2023-11-24T19:17:40.150Z,1.85
2023-11-24T19:22:42.782Z,1.84
2023-11-24T19:27:45.358Z,1.82
2023-11-24T19:32:48.206Z,1.77
2023-11-24T19:37:50.871Z,1.75
2023-11-24T19:42:53.662Z,1.66
2023-11-24T19:47:56.352Z,1.66
2023-11-24T19:52:59.609Z,1.63
2023-11-24T19:58:02.689Z,1.61
2023-11-24T20:03:05.500Z,1.62
2023-11-24T20:08:08.202Z,1.64
2023-11-24T20:13:10.860Z,1.62
2023-11-24T20:18:13.586Z,1.61
2023-11-24T20:23:16.240Z,1.64
2023-11-24T20:28:18.950Z,1.66
2023-11-24T20:33:21.654Z,1.63
2023-11-24T20:38:25.581Z,1.57
2023-11-24T20:43:28.990Z,1.57
2023-11-24T20:48:31.632Z,1.52
2023-11-24T20:53:34.383Z,1.47
2023-11-24T20:58:39.290Z,1.45
2023-11-24T21:03:42.468Z,1.50
2023-11-24T21:08:45.153Z,1.50
2023-11-24T21:13:47.905Z,1.49
2023-11-24T21:18:50.606Z,1.47
2023-11-24T21:23:53.221Z,1.46
2023-11-24T21:28:55.792Z,1.42
2023-11-24T21:33:58.630Z,1.43
2023-11-24T21:39:03.865Z,1.38
2023-11-24T21:44:07.898Z,1.35
2023-11-24T21:49:10.509Z,1.34
2023-11-24T21:54:13.598Z,1.21
2023-11-24T21:59:16.134Z,1.14
2023-11-24T22:04:18.841Z,1.10
